Hovedside
METAR-TAF:

METAR-TAF

Lufthavner :

Ørsta/Volda lufthamn. Hovden

Ørsta-Volda, Norge

breddegrad: 62-11N, lengdegrad: 006-04E, høyde over havet: 7 m

Gjeldene værobservasjon

Denne rapporten ble laget for 2 timer og 14 minutter siden, klokken 09:50 UTC
Vind 3 kt fra skiftende retning
Temperatur 0°C
Luftfuktighet 100%
Trykk 992 hPa
Sikt: 4000 m
Få skyer i en høyde av 500 ft
Spredte skyer i en høyde av 1300 ft
Brutte skyer i en høyde av 2500 ft
lette snøbyger

METAR: ENOV 070950Z VRB03KT 4000 -SHSN FEW005 SCT013 BKN025 00/M00 Q0992 RMK WIND 2175FT 26014KT

Tid: 13:04 (12:04 UTC)


TAF: fraværende

Værobservasjoner og værvarsel for over 4000 flyplasser (METAR- og TAF-rapporter).

Tilgjengelige stasjoner er representert av de røde og gule prikkene på kartet.

Hold musepekeren over prikken for å se navnet på stasjonen.

Klikk så for å se værobservasjoner og -varsler.

For å forandre kartet kan du klikke på den grønne knappen med svart kryss for å zoome inn, på den grønne knappen med strek for å zoome ut, eller på de grønne pilene for å se tilstøtende kart.


METAR-TAF: